sensor_id;sensor_type;location;lat;lon;timestamp;temperature;humidity
11599;DHT22;5855;48.840;9.188;2023-05-27T00:01:41;14.80;99.90
11599;DHT22;5855;48.840;9.188;2023-05-27T00:04:08;14.80;99.90
11599;DHT22;5855;48.840;9.188;2023-05-27T00:06:35;14.70;99.90
11599;DHT22;5855;48.840;9.188;2023-05-27T00:09:02;14.70;99.90
11599;DHT22;5855;48.840;9.188;2023-05-27T00:11:29;14.70;99.90
11599;DHT22;5855;48.840;9.188;2023-05-27T00:13:56;14.70;99.90
11599;DHT22;5855;48.840;9.188;2023-05-27T00:16:23;14.70;99.90
11599;DHT22;5855;48.840;9.188;2023-05-27T00:18:51;14.70;99.90
11599;DHT22;5855;48.840;9.188;2023-05-27T00:21:18;14.70;99.90
11599;DHT22;5855;48.840;9.188;2023-05-27T00:23:46;14.70;99.90
11599;DHT22;5855;48.840;9.188;2023-05-27T00:26:13;14.70;99.90
11599;DHT22;5855;48.840;9.188;2023-05-27T00:28:40;14.80;99.90
11599;DHT22;5855;48.840;9.188;2023-05-27T00:31:07;14.80;99.90
11599;DHT22;5855;48.840;9.188;2023-05-27T00:33:34;14.80;99.90
11599;DHT22;5855;48.840;9.188;2023-05-27T00:36:02;14.70;99.90
11599;DHT22;5855;48.840;9.188;2023-05-27T00:38:29;14.70;99.90
11599;DHT22;5855;48.840;9.188;2023-05-27T00:40:56;14.70;99.90
11599;DHT22;5855;48.840;9.188;2023-05-27T00:43:26;14.70;99.90
11599;DHT22;5855;48.840;9.188;2023-05-27T00:45:53;14.60;99.90
11599;DHT22;5855;48.840;9.188;2023-05-27T00:48:20;14.60;99.90
11599;DHT22;5855;48.840;9.188;2023-05-27T00:50:47;14.60;99.90
11599;DHT22;5855;48.840;9.188;2023-05-27T00:53:15;14.50;99.90
11599;DHT22;5855;48.840;9.188;2023-05-27T00:55:43;14.50;99.90
11599;DHT22;5855;48.840;9.188;2023-05-27T00:58:10;14.40;99.90
11599;DHT22;5855;48.840;9.188;2023-05-27T01:00:37;14.30;99.90
11599;DHT22;5855;48.840;9.188;2023-05-27T01:03:04;14.20;99.90
11599;DHT22;5855;48.840;9.188;2023-05-27T01:05:32;14.20;99.90
11599;DHT22;5855;48.840;9.188;2023-05-27T01:08:06;14.20;99.90
11599;DHT22;5855;48.840;9.188;2023-05-27T01:10:43;14.10;99.90
11599;DHT22;5855;48.840;9.188;2023-05-27T01:13:16;14.00;99.90
11599;DHT22;5855;48.840;9.188;2023-05-27T01:15:47;14.00;99.90
11599;DHT22;5855;48.840;9.188;2023-05-27T01:18:15;14.00;99.90
11599;DHT22;5855;48.840;9.188;2023-05-27T01:20:45;14.00;99.90
11599;DHT22;5855;48.840;9.188;2023-05-27T01:23:15;14.00;99.90
11599;DHT22;5855;48.840;9.188;2023-05-27T01:25:42;13.90;99.90
11599;DHT22;5855;48.840;9.188;2023-05-27T01:28:09;13.90;99.90
11599;DHT22;5855;48.840;9.188;2023-05-27T01:30:36;13.90;99.90
11599;DHT22;5855;48.840;9.188;2023-05-27T01:33:11;13.80;99.90
11599;DHT22;5855;48.840;9.188;2023-05-27T01:35:44;13.80;99.90
11599;DHT22;5855;48.840;9.188;2023-05-27T01:38:16;13.70;99.90
11599;DHT22;5855;48.840;9.188;2023-05-27T01:40:44;13.60;99.90
11599;DHT22;5855;48.840;9.188;2023-05-27T01:43:12;13.60;99.90
11599;DHT22;5855;48.840;9.188;2023-05-27T01:45:40;13.60;99.90
11599;DHT22;5855;48.840;9.188;2023-05-27T01:48:08;13.50;99.90
11599;DHT22;5855;48.840;9.188;2023-05-27T01:50:35;13.50;99.90
11599;DHT22;5855;48.840;9.188;2023-05-27T01:53:03;13.50;99.90
11599;DHT22;5855;48.840;9.188;2023-05-27T01:55:31;13.40;99.90
11599;DHT22;5855;48.840;9.188;2023-05-27T01:57:58;13.40;99.90
11599;DHT22;5855;48.840;9.188;2023-05-27T02:00:24;13.20;99.90
11599;DHT22;5855;48.840;9.188;2023-05-27T02:02:51;13.20;99.90
11599;DHT22;5855;48.840;9.188;2023-05-27T02:05:18;13.20;99.90
11599;DHT22;5855;48.840;9.188;2023-05-27T02:07:45;13.20;99.90
11599;DHT22;5855;48.840;9.188;2023-05-27T02:10:12;13.10;99.90
11599;DHT22;5855;48.840;9.188;2023-05-27T02:12:40;13.10;99.90
11599;DHT22;5855;48.840;9.188;2023-05-27T02:15:08;13.10;99.90
11599;DHT22;5855;48.840;9.188;2023-05-27T02:17:34;13.00;99.90
11599;DHT22;5855;48.840;9.188;2023-05-27T02:20:02;13.00;99.90
11599;DHT22;5855;48.840;9.188;2023-05-27T02:22:29;13.00;99.90
11599;DHT22;5855;48.840;9.188;2023-05-27T02:24:56;12.90;99.90
11599;DHT22;5855;48.840;9.188;2023-05-27T02:27:24;12.90;99.90
11599;DHT22;5855;48.840;9.188;2023-05-27T02:29:52;12.90;99.90
11599;DHT22;5855;48.840;9.188;2023-05-27T02:32:19;12.90;99.90
11599;DHT22;5855;48.840;9.188;2023-05-27T02:34:46;12.80;99.90
11599;DHT22;5855;48.840;9.188;2023-05-27T02:37:13;12.80;99.90
11599;DHT22;5855;48.840;9.188;2023-05-27T02:39:40;12.80;99.90
11599;DHT22;5855;48.840;9.188;2023-05-27T02:42:07;12.70;99.90
11599;DHT22;5855;48.840;9.188;2023-05-27T02:44:34;12.70;99.90
11599;DHT22;5855;48.840;9.188;2023-05-27T02:47:02;12.60;99.90
11599;DHT22;5855;48.840;9.188;2023-05-27T02:49:32;12.50;99.90
11599;DHT22;5855;48.840;9.188;2023-05-27T02:51:59;12.50;99.90
11599;DHT22;5855;48.840;9.188;2023-05-27T02:54:26;12.50;99.90
11599;DHT22;5855;48.840;9.188;2023-05-27T02:56:56;12.60;99.90
11599;DHT22;5855;48.840;9.188;2023-05-27T02:59:22;12.50;99.90
11599;DHT22;5855;48.840;9.188;2023-05-27T03:01:49;12.50;99.90
11599;DHT22;5855;48.840;9.188;2023-05-27T03:04:18;12.50;99.90
11599;DHT22;5855;48.840;9.188;2023-05-27T03:06:58;12.50;99.90
11599;DHT22;5855;48.840;9.188;2023-05-27T03:09:27;12.50;99.90
11599;DHT22;5855;48.840;9.188;2023-05-27T03:11:54;12.50;99.90
11599;DHT22;5855;48.840;9.188;2023-05-27T03:14:22;12.50;99.90
11599;DHT22;5855;48.840;9.188;2023-05-27T03:16:49;12.40;99.90
11599;DHT22;5855;48.840;9.188;2023-05-27T03:19:16;12.40;99.90
11599;DHT22;5855;48.840;9.188;2023-05-27T03:21:44;12.30;99.90
11599;DHT22;5855;48.840;9.188;2023-05-27T03:24:11;12.30;99.90
11599;DHT22;5855;48.840;9.188;2023-05-27T03:26:38;12.20;99.90
11599;DHT22;5855;48.840;9.188;2023-05-27T03:29:06;12.20;99.90
11599;DHT22;5855;48.840;9.188;2023-05-27T03:31:33;12.10;99.90
11599;DHT22;5855;48.840;9.188;2023-05-27T03:34:00;12.10;99.90
11599;DHT22;5855;48.840;9.188;2023-05-27T03:36:27;12.10;99.90
11599;DHT22;5855;48.840;9.188;2023-05-27T03:38:55;12.10;99.90
11599;DHT22;5855;48.840;9.188;2023-05-27T03:41:22;12.10;99.90
11599;DHT22;5855;48.840;9.188;2023-05-27T03:43:49;12.10;99.90
11599;DHT22;5855;48.840;9.188;2023-05-27T03:46:16;12.10;99.90
11599;DHT22;5855;48.840;9.188;2023-05-27T03:48:43;12.20;99.90
11599;DHT22;5855;48.840;9.188;2023-05-27T03:51:10;12.20;99.90
11599;DHT22;5855;48.840;9.188;2023-05-27T03:53:37;12.20;99.90
11599;DHT22;5855;48.840;9.188;2023-05-27T03:56:05;12.20;99.90
11599;DHT22;5855;48.840;9.188;2023-05-27T03:58:32;12.20;99.90
11599;DHT22;5855;48.840;9.188;2023-05-27T04:00:59;12.20;99.90
11599;DHT22;5855;48.840;9.188;2023-05-27T04:03:27;12.20;99.90
11599;DHT22;5855;48.840;9.188;2023-05-27T04:05:54;12.30;99.90
11599;DHT22;5855;48.840;9.188;2023-05-27T04:08:21;12.20;99.90
11599;DHT22;5855;48.840;9.188;2023-05-27T04:10:51;12.30;99.90
11599;DHT22;5855;48.840;9.188;2023-05-27T04:13:19;12.30;99.90
11599;DHT22;5855;48.840;9.188;2023-05-27T04:15:47;12.30;99.90
11599;DHT22;5855;48.840;9.188;2023-05-27T04:18:14;12.40;99.90
11599;DHT22;5855;48.840;9.188;2023-05-27T04:20:41;12.40;99.90
11599;DHT22;5855;48.840;9.188;2023-05-27T04:23:09;12.40;99.90
11599;DHT22;5855;48.840;9.188;2023-05-27T04:25:36;12.50;99.90
11599;DHT22;5855;48.840;9.188;2023-05-27T04:28:05;12.50;99.90
11599;DHT22;5855;48.840;9.188;2023-05-27T04:30:34;12.50;99.90
11599;DHT22;5855;48.840;9.188;2023-05-27T04:33:01;12.60;99.90
11599;DHT22;5855;48.840;9.188;2023-05-27T04:35:28;12.60;99.90
11599;DHT22;5855;48.840;9.188;2023-05-27T04:37:57;12.70;99.90
11599;DHT22;5855;48.840;9.188;2023-05-27T04:40:26;12.70;99.90
11599;DHT22;5855;48.840;9.188;2023-05-27T04:42:54;12.70;99.90
11599;DHT22;5855;48.840;9.188;2023-05-27T04:45:21;12.80;99.90
11599;DHT22;5855;48.840;9.188;2023-05-27T04:47:50;12.80;99.90
11599;DHT22;5855;48.840;9.188;2023-05-27T04:50:17;12.90;99.90
11599;DHT22;5855;48.840;9.188;2023-05-27T04:52:44;13.00;99.90
11599;DHT22;5855;48.840;9.188;2023-05-27T04:55:11;13.00;99.90
11599;DHT22;5855;48.840;9.188;2023-05-27T04:57:37;13.10;99.90
11599;DHT22;5855;48.840;9.188;2023-05-27T05:00:07;13.20;99.90
11599;DHT22;5855;48.840;9.188;2023-05-27T05:02:49;13.20;99.90
11599;DHT22;5855;48.840;9.188;2023-05-27T05:05:26;13.30;99.90
11599;DHT22;5855;48.840;9.188;2023-05-27T05:07:53;13.30;99.90
11599;DHT22;5855;48.840;9.188;2023-05-27T05:10:20;13.40;99.90
11599;DHT22;5855;48.840;9.188;2023-05-27T05:12:47;13.50;99.90
11599;DHT22;5855;48.840;9.188;2023-05-27T05:15:14;13.50;99.90
11599;DHT22;5855;48.840;9.188;2023-05-27T05:17:41;13.60;99.90
11599;DHT22;5855;48.840;9.188;2023-05-27T05:20:11;13.60;99.90
11599;DHT22;5855;48.840;9.188;2023-05-27T05:22:38;13.70;99.90
11599;DHT22;5855;48.840;9.188;2023-05-27T05:25:05;13.70;99.90
11599;DHT22;5855;48.840;9.188;2023-05-27T05:27:33;13.80;99.90
11599;DHT22;5855;48.840;9.188;2023-05-27T05:29:59;13.90;99.90
11599;DHT22;5855;48.840;9.188;2023-05-27T05:32:26;14.00;99.90
11599;DHT22;5855;48.840;9.188;2023-05-27T05:34:53;14.00;99.90
11599;DHT22;5855;48.840;9.188;2023-05-27T05:37:21;14.10;99.90
11599;DHT22;5855;48.840;9.188;2023-05-27T05:39:49;14.20;99.90
11599;DHT22;5855;48.840;9.188;2023-05-27T05:42:16;14.20;99.90
11599;DHT22;5855;48.840;9.188;2023-05-27T05:44:43;14.30;99.90
11599;DHT22;5855;48.840;9.188;2023-05-27T05:47:09;14.40;99.90
11599;DHT22;5855;48.840;9.188;2023-05-27T05:49:36;14.50;99.90
11599;DHT22;5855;48.840;9.188;2023-05-27T05:52:03;14.60;99.90
11599;DHT22;5855;48.840;9.188;2023-05-27T05:54:32;14.60;99.90
11599;DHT22;5855;48.840;9.188;2023-05-27T05:56:59;14.70;99.90
11599;DHT22;5855;48.840;9.188;2023-05-27T05:59:26;14.80;99.90
11599;DHT22;5855;48.840;9.188;2023-05-27T06:01:53;14.90;99.90
11599;DHT22;5855;48.840;9.188;2023-05-27T06:04:20;14.90;99.90
11599;DHT22;5855;48.840;9.188;2023-05-27T06:06:46;15.00;99.90
11599;DHT22;5855;48.840;9.188;2023-05-27T06:09:13;15.10;99.90
11599;DHT22;5855;48.840;9.188;2023-05-27T06:11:41;15.10;99.90
11599;DHT22;5855;48.840;9.188;2023-05-27T06:14:08;15.20;99.90
11599;DHT22;5855;48.840;9.188;2023-05-27T06:16:35;15.30;99.90
11599;DHT22;5855;48.840;9.188;2023-05-27T06:19:03;15.30;99.90
11599;DHT22;5855;48.840;9.188;2023-05-27T06:21:30;15.40;99.90
11599;DHT22;5855;48.840;9.188;2023-05-27T06:23:58;15.50;99.90
11599;DHT22;5855;48.840;9.188;2023-05-27T06:26:25;15.60;99.90
11599;DHT22;5855;48.840;9.188;2023-05-27T06:28:54;15.70;99.90
11599;DHT22;5855;48.840;9.188;2023-05-27T06:31:21;15.80;99.90
11599;DHT22;5855;48.840;9.188;2023-05-27T06:33:48;15.80;99.90
11599;DHT22;5855;48.840;9.188;2023-05-27T06:36:14;15.90;99.90
11599;DHT22;5855;48.840;9.188;2023-05-27T06:38:41;15.90;99.90
11599;DHT22;5855;48.840;9.188;2023-05-27T06:41:08;16.00;99.90
11599;DHT22;5855;48.840;9.188;2023-05-27T06:43:35;16.20;99.90
11599;DHT22;5855;48.840;9.188;2023-05-27T06:46:03;16.30;99.90
11599;DHT22;5855;48.840;9.188;2023-05-27T06:48:30;16.30;99.90
11599;DHT22;5855;48.840;9.188;2023-05-27T06:50:57;16.40;99.90
11599;DHT22;5855;48.840;9.188;2023-05-27T06:53:24;16.50;99.90
11599;DHT22;5855;48.840;9.188;2023-05-27T06:55:50;16.50;99.90
11599;DHT22;5855;48.840;9.188;2023-05-27T06:58:17;16.70;99.90
11599;DHT22;5855;48.840;9.188;2023-05-27T07:00:44;16.80;99.90
11599;DHT22;5855;48.840;9.188;2023-05-27T07:03:12;16.80;99.90
11599;DHT22;5855;48.840;9.188;2023-05-27T07:05:39;16.90;99.90
11599;DHT22;5855;48.840;9.188;2023-05-27T07:08:06;17.00;99.90
11599;DHT22;5855;48.840;9.188;2023-05-27T07:10:33;17.10;99.90
11599;DHT22;5855;48.840;9.188;2023-05-27T07:13:00;17.30;99.90
11599;DHT22;5855;48.840;9.188;2023-05-27T07:15:26;17.40;99.90
11599;DHT22;5855;48.840;9.188;2023-05-27T07:17:53;17.60;99.90
11599;DHT22;5855;48.840;9.188;2023-05-27T07:20:21;17.70;99.90
11599;DHT22;5855;48.840;9.188;2023-05-27T07:22:48;17.70;99.90
11599;DHT22;5855;48.840;9.188;2023-05-27T07:25:15;17.80;99.90
11599;DHT22;5855;48.840;9.188;2023-05-27T07:27:42;17.90;99.90
11599;DHT22;5855;48.840;9.188;2023-05-27T07:30:10;18.00;99.90
11599;DHT22;5855;48.840;9.188;2023-05-27T07:32:36;18.10;99.90
11599;DHT22;5855;48.840;9.188;2023-05-27T07:35:04;18.20;99.90
11599;DHT22;5855;48.840;9.188;2023-05-27T07:37:32;18.40;99.90
11599;DHT22;5855;48.840;9.188;2023-05-27T07:39:59;18.50;99.90
11599;DHT22;5855;48.840;9.188;2023-05-27T07:42:26;18.70;99.90
11599;DHT22;5855;48.840;9.188;2023-05-27T07:44:54;18.80;99.90
11599;DHT22;5855;48.840;9.188;2023-05-27T07:47:21;18.90;99.90
11599;DHT22;5855;48.840;9.188;2023-05-27T07:49:49;19.00;99.90
11599;DHT22;5855;48.840;9.188;2023-05-27T07:52:17;19.20;99.90
11599;DHT22;5855;48.840;9.188;2023-05-27T07:54:45;19.40;99.90
11599;DHT22;5855;48.840;9.188;2023-05-27T07:57:13;19.60;99.90
11599;DHT22;5855;48.840;9.188;2023-05-27T07:59:41;19.80;99.90
11599;DHT22;5855;48.840;9.188;2023-05-27T08:02:08;19.90;99.90
11599;DHT22;5855;48.840;9.188;2023-05-27T08:04:35;20.00;99.90
11599;DHT22;5855;48.840;9.188;2023-05-27T08:07:02;20.00;99.90
11599;DHT22;5855;48.840;9.188;2023-05-27T08:09:29;20.20;99.90
11599;DHT22;5855;48.840;9.188;2023-05-27T08:11:59;20.30;99.90
11599;DHT22;5855;48.840;9.188;2023-05-27T08:14:26;20.40;99.80
11599;DHT22;5855;48.840;9.188;2023-05-27T08:16:53;20.60;99.60
11599;DHT22;5855;48.840;9.188;2023-05-27T08:19:20;20.80;99.70
11599;DHT22;5855;48.840;9.188;2023-05-27T08:21:47;21.00;99.50
11599;DHT22;5855;48.840;9.188;2023-05-27T08:24:14;21.10;98.50
11599;DHT22;5855;48.840;9.188;2023-05-27T08:26:41;21.20;98.30
11599;DHT22;5855;48.840;9.188;2023-05-27T08:29:09;21.30;98.00
11599;DHT22;5855;48.840;9.188;2023-05-27T08:31:36;21.50;97.70
11599;DHT22;5855;48.840;9.188;2023-05-27T08:34:03;21.50;97.30
11599;DHT22;5855;48.840;9.188;2023-05-27T08:36:30;21.60;96.90
11599;DHT22;5855;48.840;9.188;2023-05-27T08:38:58;21.80;97.00
11599;DHT22;5855;48.840;9.188;2023-05-27T08:41:26;22.10;96.40
11599;DHT22;5855;48.840;9.188;2023-05-27T08:43:53;22.10;96.60
11599;DHT22;5855;48.840;9.188;2023-05-27T08:46:23;22.20;96.40
11599;DHT22;5855;48.840;9.188;2023-05-27T08:48:53;22.30;96.10
11599;DHT22;5855;48.840;9.188;2023-05-27T08:51:21;22.50;96.00
11599;DHT22;5855;48.840;9.188;2023-05-27T08:53:48;22.60;95.80
11599;DHT22;5855;48.840;9.188;2023-05-27T08:56:15;22.70;94.90
11599;DHT22;5855;48.840;9.188;2023-05-27T08:58:47;22.90;95.00
11599;DHT22;5855;48.840;9.188;2023-05-27T09:01:16;23.00;95.00
11599;DHT22;5855;48.840;9.188;2023-05-27T09:03:44;23.20;94.50
11599;DHT22;5855;48.840;9.188;2023-05-27T09:06:11;23.30;94.40
11599;DHT22;5855;48.840;9.188;2023-05-27T09:08:38;23.40;94.00
11599;DHT22;5855;48.840;9.188;2023-05-27T09:11:05;23.50;93.70
11599;DHT22;5855;48.840;9.188;2023-05-27T09:13:33;23.70;93.80
11599;DHT22;5855;48.840;9.188;2023-05-27T09:16:01;23.90;93.20
11599;DHT22;5855;48.840;9.188;2023-05-27T09:18:32;24.00;92.90
11599;DHT22;5855;48.840;9.188;2023-05-27T09:21:00;24.20;92.40
11599;DHT22;5855;48.840;9.188;2023-05-27T09:23:27;24.30;92.40
11599;DHT22;5855;48.840;9.188;2023-05-27T09:25:54;24.40;91.70
11599;DHT22;5855;48.840;9.188;2023-05-27T09:28:22;24.60;92.00
11599;DHT22;5855;48.840;9.188;2023-05-27T09:30:58;24.80;91.40
11599;DHT22;5855;48.840;9.188;2023-05-27T09:33:26;24.90;91.00
11599;DHT22;5855;48.840;9.188;2023-05-27T09:35:52;24.90;90.50
11599;DHT22;5855;48.840;9.188;2023-05-27T09:38:21;24.90;90.20
11599;DHT22;5855;48.840;9.188;2023-05-27T09:40:47;25.00;90.10
11599;DHT22;5855;48.840;9.188;2023-05-27T09:43:15;25.10;90.10
11599;DHT22;5855;48.840;9.188;2023-05-27T09:45:43;25.30;90.00
11599;DHT22;5855;48.840;9.188;2023-05-27T09:48:12;25.40;88.50
11599;DHT22;5855;48.840;9.188;2023-05-27T09:50:40;25.80;87.10
11599;DHT22;5855;48.840;9.188;2023-05-27T09:53:07;25.90;87.30
11599;DHT22;5855;48.840;9.188;2023-05-27T09:55:36;26.00;87.50
11599;DHT22;5855;48.840;9.188;2023-05-27T09:58:03;26.10;86.40
11599;DHT22;5855;48.840;9.188;2023-05-27T10:00:30;26.20;84.80
11599;DHT22;5855;48.840;9.188;2023-05-27T10:03:00;26.40;84.30
11599;DHT22;5855;48.840;9.188;2023-05-27T10:05:28;26.60;83.40
11599;DHT22;5855;48.840;9.188;2023-05-27T10:07:55;26.50;82.80
11599;DHT22;5855;48.840;9.188;2023-05-27T10:10:22;26.50;82.60
11599;DHT22;5855;48.840;9.188;2023-05-27T10:12:52;26.80;81.20
11599;DHT22;5855;48.840;9.188;2023-05-27T10:15:23;26.80;79.80
11599;DHT22;5855;48.840;9.188;2023-05-27T10:17:53;27.20;78.00
11599;DHT22;5855;48.840;9.188;2023-05-27T10:20:27;27.30;77.90
11599;DHT22;5855;48.840;9.188;2023-05-27T10:22:54;27.60;76.70
11599;DHT22;5855;48.840;9.188;2023-05-27T10:25:22;27.90;76.30
11599;DHT22;5855;48.840;9.188;2023-05-27T10:27:50;28.10;75.90
11599;DHT22;5855;48.840;9.188;2023-05-27T10:30:20;28.20;75.20
11599;DHT22;5855;48.840;9.188;2023-05-27T10:32:50;28.30;73.60
11599;DHT22;5855;48.840;9.188;2023-05-27T10:35:17;28.30;69.10
11599;DHT22;5855;48.840;9.188;2023-05-27T10:37:45;28.60;68.60
11599;DHT22;5855;48.840;9.188;2023-05-27T10:40:12;28.70;68.50
11599;DHT22;5855;48.840;9.188;2023-05-27T10:42:59;28.90;67.80
11599;DHT22;5855;48.840;9.188;2023-05-27T10:45:36;29.00;65.00
11599;DHT22;5855;48.840;9.188;2023-05-27T10:48:03;29.00;64.90
11599;DHT22;5855;48.840;9.188;2023-05-27T10:50:31;29.10;64.50
11599;DHT22;5855;48.840;9.188;2023-05-27T10:52:59;29.50;63.00
11599;DHT22;5855;48.840;9.188;2023-05-27T10:55:27;29.60;62.00
11599;DHT22;5855;48.840;9.188;2023-05-27T10:57:53;29.70;60.30
11599;DHT22;5855;48.840;9.188;2023-05-27T11:00:24;29.60;58.50
11599;DHT22;5855;48.840;9.188;2023-05-27T11:02:52;29.70;57.60
11599;DHT22;5855;48.840;9.188;2023-05-27T11:05:20;29.90;56.40
11599;DHT22;5855;48.840;9.188;2023-05-27T11:07:47;30.10;56.20
11599;DHT22;5855;48.840;9.188;2023-05-27T11:10:13;30.10;55.00
11599;DHT22;5855;48.840;9.188;2023-05-27T11:12:43;30.30;53.80
11599;DHT22;5855;48.840;9.188;2023-05-27T11:15:10;30.20;52.00
11599;DHT22;5855;48.840;9.188;2023-05-27T11:17:39;30.00;51.50
11599;DHT22;5855;48.840;9.188;2023-05-27T11:20:06;30.50;52.50
11599;DHT22;5855;48.840;9.188;2023-05-27T11:22:34;30.90;51.00
11599;DHT22;5855;48.840;9.188;2023-05-27T11:25:03;31.00;49.70
11599;DHT22;5855;48.840;9.188;2023-05-27T11:27:36;31.30;49.30
11599;DHT22;5855;48.840;9.188;2023-05-27T11:30:08;31.70;48.90
11599;DHT22;5855;48.840;9.188;2023-05-27T11:32:40;32.10;48.00
11599;DHT22;5855;48.840;9.188;2023-05-27T11:35:13;32.50;46.50
11599;DHT22;5855;48.840;9.188;2023-05-27T11:37:40;33.10;44.80
11599;DHT22;5855;48.840;9.188;2023-05-27T11:40:11;33.40;43.60
11599;DHT22;5855;48.840;9.188;2023-05-27T11:42:43;33.60;42.60
11599;DHT22;5855;48.840;9.188;2023-05-27T11:45:15;33.40;41.00
11599;DHT22;5855;48.840;9.188;2023-05-27T11:47:44;33.50;39.80
11599;DHT22;5855;48.840;9.188;2023-05-27T11:50:14;34.00;39.20
11599;DHT22;5855;48.840;9.188;2023-05-27T11:52:50;34.00;40.00
11599;DHT22;5855;48.840;9.188;2023-05-27T11:55:18;34.10;39.40
11599;DHT22;5855;48.840;9.188;2023-05-27T11:57:45;34.60;38.60
11599;DHT22;5855;48.840;9.188;2023-05-27T12:00:12;35.20;37.50
11599;DHT22;5855;48.840;9.188;2023-05-27T12:02:39;35.50;36.80
11599;DHT22;5855;48.840;9.188;2023-05-27T12:05:09;35.70;35.40
11599;DHT22;5855;48.840;9.188;2023-05-27T12:07:36;35.90;34.10
11599;DHT22;5855;48.840;9.188;2023-05-27T12:10:07;36.30;32.60
11599;DHT22;5855;48.840;9.188;2023-05-27T12:12:35;36.40;32.40
11599;DHT22;5855;48.840;9.188;2023-05-27T12:15:04;36.30;32.30
11599;DHT22;5855;48.840;9.188;2023-05-27T12:17:31;36.10;30.80
11599;DHT22;5855;48.840;9.188;2023-05-27T12:19:57;36.20;30.70
11599;DHT22;5855;48.840;9.188;2023-05-27T12:22:26;36.40;29.70
11599;DHT22;5855;48.840;9.188;2023-05-27T12:24:52;36.60;29.70
11599;DHT22;5855;48.840;9.188;2023-05-27T12:27:20;36.70;29.10
11599;DHT22;5855;48.840;9.188;2023-05-27T12:29:46;37.50;28.10
11599;DHT22;5855;48.840;9.188;2023-05-27T12:32:13;38.30;27.50
11599;DHT22;5855;48.840;9.188;2023-05-27T12:34:40;38.50;26.90
11599;DHT22;5855;48.840;9.188;2023-05-27T12:37:07;38.50;26.30
11599;DHT22;5855;48.840;9.188;2023-05-27T12:39:35;38.60;25.90
11599;DHT22;5855;48.840;9.188;2023-05-27T12:42:02;38.90;25.50
11599;DHT22;5855;48.840;9.188;2023-05-27T12:44:29;38.90;25.80
11599;DHT22;5855;48.840;9.188;2023-05-27T12:46:56;38.60;24.90
11599;DHT22;5855;48.840;9.188;2023-05-27T12:49:22;38.90;24.70
11599;DHT22;5855;48.840;9.188;2023-05-27T12:51:49;39.20;24.10
11599;DHT22;5855;48.840;9.188;2023-05-27T12:54:16;39.60;23.70
11599;DHT22;5855;48.840;9.188;2023-05-27T12:56:44;39.60;22.70
11599;DHT22;5855;48.840;9.188;2023-05-27T12:59:11;39.60;22.90
11599;DHT22;5855;48.840;9.188;2023-05-27T13:01:38;39.10;23.70
11599;DHT22;5855;48.840;9.188;2023-05-27T13:04:05;39.20;23.30
11599;DHT22;5855;48.840;9.188;2023-05-27T13:06:32;39.50;22.50
11599;DHT22;5855;48.840;9.188;2023-05-27T13:08:59;39.70;22.30
11599;DHT22;5855;48.840;9.188;2023-05-27T13:11:26;39.30;22.40
11599;DHT22;5855;48.840;9.188;2023-05-27T13:13:54;39.40;22.80
11599;DHT22;5855;48.840;9.188;2023-05-27T13:16:21;40.20;21.90
11599;DHT22;5855;48.840;9.188;2023-05-27T13:18:47;40.60;21.20
11599;DHT22;5855;48.840;9.188;2023-05-27T13:21:14;41.40;21.00
11599;DHT22;5855;48.840;9.188;2023-05-27T13:23:41;41.60;20.40
11599;DHT22;5855;48.840;9.188;2023-05-27T13:26:08;41.80;19.80
11599;DHT22;5855;48.840;9.188;2023-05-27T13:28:35;42.00;19.50
11599;DHT22;5855;48.840;9.188;2023-05-27T13:31:03;42.30;19.40
11599;DHT22;5855;48.840;9.188;2023-05-27T13:33:30;42.00;19.10
11599;DHT22;5855;48.840;9.188;2023-05-27T13:35:58;41.70;19.30
11599;DHT22;5855;48.840;9.188;2023-05-27T13:38:25;41.70;18.40
11599;DHT22;5855;48.840;9.188;2023-05-27T13:40:52;41.30;18.50
11599;DHT22;5855;48.840;9.188;2023-05-27T13:43:18;41.30;18.90
11599;DHT22;5855;48.840;9.188;2023-05-27T13:45:45;41.70;18.20
11599;DHT22;5855;48.840;9.188;2023-05-27T13:48:13;41.80;18.00
11599;DHT22;5855;48.840;9.188;2023-05-27T13:50:40;41.50;18.10
11599;DHT22;5855;48.840;9.188;2023-05-27T13:53:07;41.20;18.00
11599;DHT22;5855;48.840;9.188;2023-05-27T13:55:34;40.90;17.90
11599;DHT22;5855;48.840;9.188;2023-05-27T13:58:01;41.10;17.70
11599;DHT22;5855;48.840;9.188;2023-05-27T14:00:28;41.40;17.80
11599;DHT22;5855;48.840;9.188;2023-05-27T14:02:56;41.50;17.80
11599;DHT22;5855;48.840;9.188;2023-05-27T14:05:26;41.60;17.40
11599;DHT22;5855;48.840;9.188;2023-05-27T14:07:54;42.00;17.00
11599;DHT22;5855;48.840;9.188;2023-05-27T14:10:21;41.50;17.20
11599;DHT22;5855;48.840;9.188;2023-05-27T14:12:47;41.70;16.60
11599;DHT22;5855;48.840;9.188;2023-05-27T14:15:14;42.00;16.60
11599;DHT22;5855;48.840;9.188;2023-05-27T14:17:41;42.00;16.50
11599;DHT22;5855;48.840;9.188;2023-05-27T14:20:08;42.40;15.90
11599;DHT22;5855;48.840;9.188;2023-05-27T14:22:38;42.70;15.50
11599;DHT22;5855;48.840;9.188;2023-05-27T14:25:06;42.30;15.80
11599;DHT22;5855;48.840;9.188;2023-05-27T14:27:32;41.90;15.10
11599;DHT22;5855;48.840;9.188;2023-05-27T14:29:59;41.90;15.00
11599;DHT22;5855;48.840;9.188;2023-05-27T14:32:26;41.90;14.90
11599;DHT22;5855;48.840;9.188;2023-05-27T14:34:53;41.80;14.50
11599;DHT22;5855;48.840;9.188;2023-05-27T14:37:21;41.90;14.20
11599;DHT22;5855;48.840;9.188;2023-05-27T14:39:50;41.90;14.80
11599;DHT22;5855;48.840;9.188;2023-05-27T14:42:18;42.10;14.50
11599;DHT22;5855;48.840;9.188;2023-05-27T14:44:44;42.30;14.20
11599;DHT22;5855;48.840;9.188;2023-05-27T14:47:11;41.90;13.70
11599;DHT22;5855;48.840;9.188;2023-05-27T14:49:38;41.80;13.00
11599;DHT22;5855;48.840;9.188;2023-05-27T14:52:05;41.60;13.40
11599;DHT22;5855;48.840;9.188;2023-05-27T14:54:32;41.90;13.90
11599;DHT22;5855;48.840;9.188;2023-05-27T14:57:00;42.10;13.00
11599;DHT22;5855;48.840;9.188;2023-05-27T14:59:27;42.30;13.50
11599;DHT22;5855;48.840;9.188;2023-05-27T15:01:53;42.40;13.40
11599;DHT22;5855;48.840;9.188;2023-05-27T15:04:20;42.30;12.60
11599;DHT22;5855;48.840;9.188;2023-05-27T15:06:47;42.30;12.70
11599;DHT22;5855;48.840;9.188;2023-05-27T15:09:14;42.10;13.10
11599;DHT22;5855;48.840;9.188;2023-05-27T15:11:41;41.70;13.00
11599;DHT22;5855;48.840;9.188;2023-05-27T15:14:09;41.60;13.20
11599;DHT22;5855;48.840;9.188;2023-05-27T15:16:36;41.50;12.70
11599;DHT22;5855;48.840;9.188;2023-05-27T15:19:02;41.70;13.30
11599;DHT22;5855;48.840;9.188;2023-05-27T15:21:29;41.80;12.60
11599;DHT22;5855;48.840;9.188;2023-05-27T15:23:57;41.80;12.30
11599;DHT22;5855;48.840;9.188;2023-05-27T15:26:23;41.60;12.40
11599;DHT22;5855;48.840;9.188;2023-05-27T15:28:51;41.70;12.50
11599;DHT22;5855;48.840;9.188;2023-05-27T15:31:19;41.70;12.40
11599;DHT22;5855;48.840;9.188;2023-05-27T15:33:48;42.00;12.40
11599;DHT22;5855;48.840;9.188;2023-05-27T15:36:15;41.40;12.10
11599;DHT22;5855;48.840;9.188;2023-05-27T15:38:42;41.90;12.20
11599;DHT22;5855;48.840;9.188;2023-05-27T15:41:09;41.50;11.70
11599;DHT22;5855;48.840;9.188;2023-05-27T15:43:36;41.50;12.00
11599;DHT22;5855;48.840;9.188;2023-05-27T15:46:03;41.70;12.30
11599;DHT22;5855;48.840;9.188;2023-05-27T15:48:31;42.10;11.70